createdAt,value
2022-12-25T00:01:28.225Z,101470.44
2022-12-25T00:03:56.846Z,101474.19
2022-12-25T00:06:23.471Z,101471.94
2022-12-25T00:08:49.835Z,101457.81
2022-12-25T00:11:18.281Z,101456.41
2022-12-25T00:13:45.188Z,101442.31
2022-12-25T00:16:19.093Z,101442.91
2022-12-25T00:18:46.166Z,101443.56
2022-12-25T00:21:13.806Z,101434.66
2022-12-25T00:23:40.358Z,101442.44
2022-12-25T00:26:09.364Z,101449.28
2022-12-25T00:28:35.952Z,101433.69
2022-12-25T00:31:06.963Z,101427.03
2022-12-25T00:33:35.762Z,101437.63
2022-12-25T00:36:02.877Z,101435.69
2022-12-25T00:38:29.400Z,101433.94
2022-12-25T00:40:55.789Z,101423.78
2022-12-25T00:43:22.753Z,101411.00
2022-12-25T00:46:03.108Z,101410.53
2022-12-25T00:48:30.206Z,101425.19
2022-12-25T00:50:59.390Z,101428.50
2022-12-25T00:53:26.705Z,101436.66
2022-12-25T00:56:05.200Z,101427.72
2022-12-25T00:58:33.481Z,101434.25
2022-12-25T01:01:00.062Z,101422.28
2022-12-25T01:03:26.969Z,101413.84
2022-12-25T01:05:58.572Z,101436.78
2022-12-25T01:08:25.927Z,101434.88
2022-12-25T01:11:01.325Z,101440.28
2022-12-25T01:13:29.735Z,101445.50
2022-12-25T01:15:56.292Z,101442.25
2022-12-25T01:18:24.520Z,101441.09
2022-12-25T01:20:51.469Z,101435.75
2022-12-25T01:23:17.807Z,101430.53
2022-12-25T01:25:44.126Z,101441.81
2022-12-25T01:28:10.557Z,101450.75
2022-12-25T01:30:37.041Z,101452.06
2022-12-25T01:33:03.624Z,101456.94
2022-12-25T01:35:30.157Z,101457.44
2022-12-25T01:37:56.672Z,101461.53
2022-12-25T01:40:23.057Z,101460.38
2022-12-25T01:42:49.480Z,101460.03
2022-12-25T01:45:32.554Z,101454.50
2022-12-25T01:48:00.594Z,101454.19
2022-12-25T01:50:28.371Z,101449.31
2022-12-25T01:52:56.294Z,101452.06
2022-12-25T01:55:23.484Z,101448.16
2022-12-25T01:57:50.114Z,101448.34
2022-12-25T02:00:16.859Z,101447.84
2022-12-25T02:02:44.594Z,101436.44
2022-12-25T02:05:22.267Z,101429.28
2022-12-25T02:07:49.610Z,101433.84
2022-12-25T02:10:16.986Z,101433.84
2022-12-25T02:12:45.063Z,101433.16
2022-12-25T02:15:16.850Z,101451.16
2022-12-25T02:18:15.264Z,101461.84
2022-12-25T02:20:50.497Z,101460.94
2022-12-25T02:23:55.246Z,101463.03
2022-12-25T02:26:55.304Z,101460.84
2022-12-25T02:29:31.416Z,101442.19
2022-12-25T02:32:16.416Z,101448.34
2022-12-25T02:34:57.149Z,101451.25
2022-12-25T02:37:30.140Z,101438.50
2022-12-25T02:40:08.410Z,101449.50
2022-12-25T02:42:40.731Z,101450.78
2022-12-25T02:45:07.553Z,101453.91
2022-12-25T02:47:36.298Z,101451.78
2022-12-25T02:50:04.890Z,101437.47
2022-12-25T02:52:31.781Z,101444.66
2022-12-25T02:55:03.973Z,101441.72
2022-12-25T02:57:35.111Z,101450.22
2022-12-25T03:00:03.799Z,101445.34
2022-12-25T03:02:33.580Z,101448.00
2022-12-25T03:05:02.914Z,101434.66
2022-12-25T03:07:30.039Z,101436.31
2022-12-25T03:10:03.299Z,101418.31
2022-12-25T03:12:42.357Z,101426.28
2022-12-25T03:15:10.759Z,101426.47
2022-12-25T03:17:37.570Z,101407.56
2022-12-25T03:20:05.551Z,101405.91
2022-12-25T03:22:32.619Z,101401.72
2022-12-25T03:24:59.030Z,101405.66
2022-12-25T03:27:26.813Z,101396.19
2022-12-25T03:29:53.264Z,101408.56
2022-12-25T03:32:26.600Z,101388.25
2022-12-25T03:34:58.868Z,101386.59
2022-12-25T03:37:25.160Z,101374.34
2022-12-25T03:39:57.740Z,101374.34
2022-12-25T03:42:43.480Z,101381.63
2022-12-25T03:45:21.869Z,101387.22
2022-12-25T03:47:51.810Z,101390.09
2022-12-25T03:50:57.838Z,101390.75
2022-12-25T03:53:37.854Z,101391.22
2022-12-25T03:56:05.463Z,101393.81
2022-12-25T03:58:31.841Z,101387.75
2022-12-25T04:00:58.451Z,101392.59
2022-12-25T04:03:24.978Z,101392.81
2022-12-25T04:05:51.480Z,101379.22
2022-12-25T04:08:17.898Z,101387.16
2022-12-25T04:10:44.246Z,101384.38
2022-12-25T04:13:11.224Z,101383.41
2022-12-25T04:15:37.664Z,101382.25
2022-12-25T04:18:04.425Z,101379.16
2022-12-25T04:20:30.833Z,101382.06
2022-12-25T04:22:57.283Z,101383.69
2022-12-25T04:25:23.671Z,101383.84
2022-12-25T04:27:50.113Z,101380.78
2022-12-25T04:30:16.524Z,101372.13
2022-12-25T04:32:42.882Z,101377.00
2022-12-25T04:35:09.615Z,101383.84
2022-12-25T04:37:36.040Z,101386.44
2022-12-25T04:40:02.399Z,101376.22
2022-12-25T04:42:28.847Z,101385.66
2022-12-25T04:44:55.226Z,101380.72
2022-12-25T04:47:21.610Z,101389.84
2022-12-25T04:49:47.974Z,101387.38
2022-12-25T04:52:14.635Z,101387.22
2022-12-25T04:54:41.225Z,101388.03
2022-12-25T04:57:07.620Z,101389.00
2022-12-25T04:59:34.019Z,101390.09
2022-12-25T05:02:00.587Z,101397.94
2022-12-25T05:04:27.239Z,101377.47
2022-12-25T05:06:53.570Z,101377.91
2022-12-25T05:09:20.055Z,101389.63
2022-12-25T05:11:46.410Z,101381.53
2022-12-25T05:14:12.837Z,101379.78
2022-12-25T05:16:39.521Z,101379.69
2022-12-25T05:19:06.098Z,101393.53
2022-12-25T05:21:32.668Z,101387.69
2022-12-25T05:23:59.431Z,101386.03
2022-12-25T05:26:26.666Z,101379.91
2022-12-25T05:28:53.927Z,101363.69
2022-12-25T05:31:20.583Z,101370.41
2022-12-25T05:33:49.995Z,101368.75
2022-12-25T05:36:16.382Z,101352.19
2022-12-25T05:38:42.749Z,101344.22
2022-12-25T05:41:09.205Z,101349.75
2022-12-25T05:43:35.724Z,101351.72
2022-12-25T05:46:09.581Z,101348.47
2022-12-25T05:48:37.410Z,101345.06
2022-12-25T05:51:08.397Z,101338.38
2022-12-25T05:53:35.725Z,101339.22
2022-12-25T05:56:03.826Z,101335.97
2022-12-25T05:58:31.117Z,101324.31
2022-12-25T06:00:57.899Z,101346.25
2022-12-25T06:03:24.997Z,101343.19
2022-12-25T06:05:51.670Z,101338.47
2022-12-25T06:08:18.106Z,101325.81
2022-12-25T06:10:44.480Z,101335.25
2022-12-25T06:13:10.835Z,101333.78
2022-12-25T06:15:41.328Z,101341.44
2022-12-25T06:18:08.243Z,101336.06
2022-12-25T06:20:34.608Z,101334.09
2022-12-25T06:23:01.667Z,101330.03
2022-12-25T06:25:28.218Z,101340.94
2022-12-25T06:27:54.855Z,101334.91
2022-12-25T06:30:21.236Z,101322.03
2022-12-25T06:32:47.615Z,101303.03
2022-12-25T06:35:14.076Z,101311.50
2022-12-25T06:37:40.425Z,101304.66
2022-12-25T06:40:07.528Z,101305.28
2022-12-25T06:42:33.969Z,101304.16
2022-12-25T06:45:00.388Z,101313.41
2022-12-25T06:47:26.751Z,101308.38
2022-12-25T06:49:53.119Z,101313.75
2022-12-25T06:52:19.530Z,101301.41
2022-12-25T06:54:47.163Z,101319.31
2022-12-25T06:57:13.524Z,101311.03
2022-12-25T06:59:40.027Z,101306.78
2022-12-25T07:02:20.323Z,101294.28
2022-12-25T07:04:48.118Z,101297.34
2022-12-25T07:07:14.985Z,101300.13
2022-12-25T07:09:41.466Z,101310.22
2022-12-25T07:12:18.286Z,101302.09
2022-12-25T07:14:45.573Z,101310.03
2022-12-25T07:17:11.935Z,101299.59
2022-12-25T07:19:44.482Z,101290.16
2022-12-25T07:22:11.237Z,101294.69
2022-12-25T07:24:37.633Z,101293.38
2022-12-25T07:27:04.135Z,101286.34
2022-12-25T07:29:30.552Z,101283.09
2022-12-25T07:31:57.143Z,101283.72
2022-12-25T07:34:23.559Z,101286.53
2022-12-25T07:36:50.083Z,101303.09
2022-12-25T07:39:16.507Z,101312.19
2022-12-25T07:41:43.673Z,101316.59
2022-12-25T07:44:10.022Z,101309.75
2022-12-25T07:46:36.414Z,101317.53
2022-12-25T07:49:02.773Z,101304.47
2022-12-25T07:51:29.153Z,101302.56
2022-12-25T07:53:56.283Z,101309.91
2022-12-25T07:56:22.911Z,101304.47
2022-12-25T07:58:49.712Z,101305.16
2022-12-25T08:01:21.792Z,101300.25
2022-12-25T08:03:52.569Z,101318.47
2022-12-25T08:06:20.258Z,101324.94
2022-12-25T08:08:47.143Z,101325.94
2022-12-25T08:11:13.913Z,101329.00
2022-12-25T08:13:41.011Z,101323.28
2022-12-25T08:16:10.180Z,101318.72
2022-12-25T08:18:38.164Z,101304.81
2022-12-25T08:21:10.642Z,101312.84
2022-12-25T08:23:39.751Z,101327.44
2022-12-25T08:26:07.574Z,101327.91
2022-12-25T08:28:34.636Z,101327.09
2022-12-25T08:31:16.068Z,101332.97
2022-12-25T08:33:43.473Z,101339.78
2022-12-25T08:36:11.347Z,101345.94
2022-12-25T08:38:38.118Z,101344.75
2022-12-25T08:41:04.914Z,101340.00
2022-12-25T08:43:31.423Z,101341.44
2022-12-25T08:45:57.852Z,101327.78
2022-12-25T08:48:24.579Z,101328.06
2022-12-25T08:50:52.643Z,101326.91
2022-12-25T08:53:19.599Z,101316.63
2022-12-25T08:55:46.359Z,101321.50
2022-12-25T08:58:13.534Z,101326.97
2022-12-25T09:00:40.785Z,101310.00
2022-12-25T09:03:07.199Z,101304.97
2022-12-25T09:05:37.473Z,101288.03
2022-12-25T09:08:04.231Z,101296.13
2022-12-25T09:10:30.843Z,101292.88
2022-12-25T09:12:57.400Z,101305.41
2022-12-25T09:15:23.872Z,101296.50
2022-12-25T09:17:50.261Z,101306.41
2022-12-25T09:20:16.630Z,101309.34
2022-12-25T09:22:43.022Z,101315.88
2022-12-25T09:25:09.769Z,101310.00
2022-12-25T09:27:36.312Z,101294.16
2022-12-25T09:30:03.257Z,101298.41
2022-12-25T09:32:29.606Z,101310.44
2022-12-25T09:34:55.991Z,101306.56
2022-12-25T09:37:22.540Z,101323.31
2022-12-25T09:39:48.954Z,101315.66
2022-12-25T09:42:20.566Z,101311.06
2022-12-25T09:44:53.443Z,101302.97
2022-12-25T09:47:24.748Z,101313.44
2022-12-25T09:50:02.773Z,101324.84
2022-12-25T09:52:43.875Z,101314.94
2022-12-25T09:55:14.735Z,101311.97
2022-12-25T09:57:45.663Z,101305.13
2022-12-25T10:00:18.043Z,101302.59
2022-12-25T10:03:03.371Z,101316.66
2022-12-25T10:05:41.921Z,101301.63
2022-12-25T10:08:45.836Z,101295.88
2022-12-25T10:11:43.412Z,101299.03
2022-12-25T10:14:30.426Z,101302.72
2022-12-25T10:17:18.575Z,101300.28
2022-12-25T10:20:13.954Z,101299.03
2022-12-25T10:22:44.253Z,101285.16
2022-12-25T10:25:22.921Z,101288.22
2022-12-25T10:28:01.364Z,101292.63
2022-12-25T10:30:28.818Z,101297.69
2022-12-25T10:32:57.533Z,101290.81
2022-12-25T10:35:27.338Z,101293.25
2022-12-25T10:37:59.840Z,101286.06
2022-12-25T10:40:59.915Z,101284.06
2022-12-25T10:43:51.846Z,101265.25
2022-12-25T10:46:20.752Z,101246.34
2022-12-25T10:48:59.348Z,101243.72
2022-12-25T10:51:37.719Z,101263.09
2022-12-25T10:54:20.470Z,101264.97
2022-12-25T10:57:03.942Z,101238.25
2022-12-25T10:59:35.206Z,101251.44
2022-12-25T11:02:28.223Z,101250.59
2022-12-25T11:05:04.809Z,101237.09
2022-12-25T11:07:33.150Z,101231.03
2022-12-25T11:10:16.113Z,101228.41
2022-12-25T11:12:44.680Z,101209.91
2022-12-25T11:15:39.315Z,101217.28
2022-12-25T11:18:24.046Z,101214.66
2022-12-25T11:20:52.632Z,101204.38
2022-12-25T11:23:21.222Z,101204.56
2022-12-25T11:26:05.451Z,101203.13
2022-12-25T11:28:33.147Z,101199.34
2022-12-25T11:31:05.483Z,101199.34
2022-12-25T11:33:37.275Z,101188.66
2022-12-25T11:36:15.407Z,101187.66
2022-12-25T11:38:41.786Z,101173.34
2022-12-25T11:41:10.860Z,101161.63
2022-12-25T11:43:47.122Z,101160.50
2022-12-25T11:46:26.694Z,101158.22
2022-12-25T11:48:58.247Z,101148.06
2022-12-25T11:51:28.906Z,101137.16
2022-12-25T11:54:02.344Z,101134.44
2022-12-25T11:56:30.753Z,101144.50
2022-12-25T11:59:03.608Z,101131.47
2022-12-25T12:01:52.880Z,101104.72
2022-12-25T12:04:31.053Z,101114.25
2022-12-25T12:07:20.993Z,101110.28
2022-12-25T12:10:21.413Z,101107.66
2022-12-25T12:13:24.651Z,101109.91
2022-12-25T12:15:51.433Z,101100.66
2022-12-25T12:18:31.650Z,101099.38
2022-12-25T12:21:02.438Z,101084.06
2022-12-25T12:23:31.587Z,101105.06
2022-12-25T12:25:58.338Z,101102.81
2022-12-25T12:28:27.877Z,101086.50
2022-12-25T12:31:13.132Z,101098.06
2022-12-25T12:33:59.611Z,101093.25
2022-12-25T12:36:35.571Z,101088.19
2022-12-25T12:39:04.157Z,101092.22
2022-12-25T12:41:48.464Z,101094.84
2022-12-25T12:44:17.382Z,101097.34
2022-12-25T12:46:57.447Z,101097.59
2022-12-25T12:49:26.639Z,101085.09
2022-12-25T12:52:22.320Z,101082.72
2022-12-25T12:54:56.469Z,101070.22
2022-12-25T12:57:26.679Z,101073.28
2022-12-25T12:59:53.086Z,101067.22
2022-12-25T13:02:38.080Z,101058.97
2022-12-25T13:05:37.107Z,101055.00
2022-12-25T13:08:21.757Z,101057.78
2022-12-25T13:10:50.588Z,101051.38
2022-12-25T13:13:22.099Z,101068.06
2022-12-25T13:15:50.810Z,101072.53
2022-12-25T13:18:17.658Z,101063.84
2022-12-25T13:20:59.925Z,101065.13
2022-12-25T13:23:29.216Z,101047.81
2022-12-25T13:26:01.027Z,101043.34
2022-12-25T13:28:35.309Z,101058.25
2022-12-25T13:31:13.975Z,101052.25
2022-12-25T13:33:45.218Z,101052.84
2022-12-25T13:36:13.774Z,101046.22
2022-12-25T13:38:48.915Z,101060.13
2022-12-25T13:41:20.614Z,101051.84
2022-12-25T13:43:48.613Z,101050.69
2022-12-25T13:46:15.533Z,101046.47
2022-12-25T13:48:42.802Z,101031.38
2022-12-25T13:51:14.435Z,101030.56
2022-12-25T13:53:40.814Z,101030.19
2022-12-25T13:56:14.391Z,101025.97
2022-12-25T13:58:40.908Z,101014.47
2022-12-25T14:01:08.545Z,101022.03
2022-12-25T14:03:43.735Z,101022.47
2022-12-25T14:06:31.905Z,101013.66
2022-12-25T14:08:59.486Z,101022.03
2022-12-25T14:11:28.520Z,101019.06
2022-12-25T14:13:59.970Z,101016.03
2022-12-25T14:16:27.218Z,100990.22
2022-12-25T14:19:01.287Z,100997.69
2022-12-25T14:21:35.256Z,101002.91
2022-12-25T14:24:02.112Z,100995.44
2022-12-25T14:26:31.549Z,100994.63
2022-12-25T14:29:16.589Z,100997.25
2022-12-25T14:31:45.218Z,101005.09
2022-12-25T14:34:23.246Z,100996.63
2022-12-25T14:36:51.836Z,100993.84
2022-12-25T14:39:28.037Z,100999.81
2022-12-25T14:41:54.739Z,100998.19
2022-12-25T14:44:33.677Z,100996.19
2022-12-25T14:47:26.186Z,100995.22
2022-12-25T14:49:52.590Z,101000.00
2022-12-25T14:52:21.655Z,100985.97
2022-12-25T14:54:52.989Z,100984.16
2022-12-25T14:57:28.016Z,100978.13
2022-12-25T14:59:56.902Z,100993.03
2022-12-25T15:02:23.853Z,100993.03
2022-12-25T15:04:50.287Z,100993.84
2022-12-25T15:07:30.792Z,100999.91
2022-12-25T15:10:27.097Z,100996.69
2022-12-25T15:12:44.033Z,100995.13
2022-12-25T15:15:10.594Z,100991.72
2022-12-25T15:17:36.941Z,100999.34
2022-12-25T15:20:03.732Z,100981.22
2022-12-25T15:22:47.742Z,100977.78
2022-12-25T15:25:16.517Z,100980.34
2022-12-25T15:27:43.103Z,100978.47
2022-12-25T15:30:11.003Z,100977.69
2022-12-25T15:32:37.935Z,100986.75
2022-12-25T15:35:05.313Z,100976.84
2022-12-25T15:37:31.955Z,100975.25
2022-12-25T15:39:58.352Z,100969.59
2022-12-25T15:42:25.339Z,100971.63
2022-12-25T15:44:52.005Z,100957.72
2022-12-25T15:47:19.251Z,100974.47
2022-12-25T15:49:45.847Z,100978.06
2022-12-25T15:52:15.653Z,100973.84
2022-12-25T15:54:42.084Z,100983.34
2022-12-25T15:57:17.831Z,100983.97
2022-12-25T15:59:44.196Z,100969.47
2022-12-25T16:02:19.920Z,100960.25
2022-12-25T16:04:46.476Z,100983.00
2022-12-25T16:07:17.987Z,100960.06
2022-12-25T16:09:45.108Z,100970.94
2022-12-25T16:12:11.711Z,100967.91
2022-12-25T16:14:38.157Z,100977.78
2022-12-25T16:17:05.167Z,100967.53
2022-12-25T16:19:31.743Z,100969.31
2022-12-25T16:21:58.360Z,100962.50
2022-12-25T16:24:24.741Z,100959.63
2022-12-25T16:26:51.118Z,100955.84
2022-12-25T16:29:17.573Z,100959.25
2022-12-25T16:31:44.253Z,100939.56
2022-12-25T16:34:10.692Z,100948.19
2022-12-25T16:36:37.240Z,100945.41
2022-12-25T16:39:04.713Z,100946.81
2022-12-25T16:41:31.401Z,100938.50
2022-12-25T16:43:57.865Z,100947.50
2022-12-25T16:46:24.533Z,100952.13
2022-12-25T16:48:50.890Z,100927.31
2022-12-25T16:51:19.739Z,100938.03
2022-12-25T16:53:46.197Z,100931.78
2022-12-25T16:56:15.268Z,100931.78
2022-12-25T16:58:43.549Z,100921.09
2022-12-25T17:01:11.925Z,100937.38
2022-12-25T17:03:38.894Z,100931.53
2022-12-25T17:06:25.552Z,100936.94
2022-12-25T17:08:55.192Z,100928.09
2022-12-25T17:11:21.588Z,100926.94
2022-12-25T17:13:48.604Z,100916.50
2022-12-25T17:16:17.518Z,100899.00
2022-12-25T17:18:44.376Z,100911.28
2022-12-25T17:21:11.210Z,100924.69
2022-12-25T17:23:38.416Z,100925.69
2022-12-25T17:26:05.786Z,100920.03
2022-12-25T17:28:34.078Z,100914.81
2022-12-25T17:31:05.463Z,100913.00
2022-12-25T17:33:32.424Z,100911.41
2022-12-25T17:36:04.230Z,100901.06
2022-12-25T17:38:32.261Z,100907.50
2022-12-25T17:40:59.683Z,100904.31
2022-12-25T17:43:26.590Z,100916.75
2022-12-25T17:45:53.053Z,100923.94
2022-12-25T17:48:22.168Z,100918.88
2022-12-25T17:50:49.101Z,100935.78
2022-12-25T17:53:15.473Z,100924.28
2022-12-25T17:55:41.975Z,100927.69
2022-12-25T17:58:08.929Z,100935.78
2022-12-25T18:00:36.351Z,100923.09
2022-12-25T18:03:09.095Z,100930.19
2022-12-25T18:05:37.843Z,100924.34
2022-12-25T18:08:04.427Z,100919.47
2022-12-25T18:10:39.152Z,100913.03
2022-12-25T18:13:05.589Z,100915.84
2022-12-25T18:15:32.156Z,100915.59
2022-12-25T18:17:58.497Z,100918.63
2022-12-25T18:20:24.848Z,100917.81
2022-12-25T18:22:51.213Z,100915.84
2022-12-25T18:25:17.590Z,100895.69
2022-12-25T18:27:43.950Z,100911.59
2022-12-25T18:30:10.640Z,100905.94
2022-12-25T18:32:37.082Z,100902.53
2022-12-25T18:35:04.933Z,100894.88
2022-12-25T18:37:34.450Z,100896.31
2022-12-25T18:40:06.690Z,100892.66
2022-12-25T18:42:33.069Z,100896.69
2022-12-25T18:44:59.612Z,100898.28
2022-12-25T18:47:26.328Z,100905.31
2022-12-25T18:49:52.803Z,100901.91
2022-12-25T18:52:49.816Z,100899.88
2022-12-25T18:55:06.974Z,100904.69
2022-12-25T18:57:33.456Z,100897.25
2022-12-25T19:00:00.368Z,100905.72
2022-12-25T19:02:27.469Z,100905.72
2022-12-25T19:04:54.953Z,100907.09
2022-12-25T19:07:22.312Z,100893.97
2022-12-25T19:09:49.617Z,100895.16
2022-12-25T19:12:16.403Z,100911.25
2022-12-25T19:14:47.751Z,100911.78
2022-12-25T19:17:14.574Z,100915.28
2022-12-25T19:19:41.001Z,100908.06
2022-12-25T19:22:07.882Z,100902.84
2022-12-25T19:24:35.680Z,100899.03
2022-12-25T19:27:02.501Z,100901.88
2022-12-25T19:29:29.414Z,100908.06
2022-12-25T19:31:56.304Z,100905.44
2022-12-25T19:34:23.105Z,100903.84
2022-12-25T19:36:49.424Z,100908.88
2022-12-25T19:39:16.051Z,100894.41
2022-12-25T19:41:42.432Z,100886.56
2022-12-25T19:44:08.857Z,100894.03
2022-12-25T19:46:38.340Z,100891.59
2022-12-25T19:49:05.242Z,100883.28
2022-12-25T19:51:36.991Z,100899.75
2022-12-25T19:54:04.782Z,100899.88
2022-12-25T19:56:32.303Z,100903.47
2022-12-25T19:58:59.195Z,100907.88
2022-12-25T20:01:27.777Z,100914.72
2022-12-25T20:03:54.793Z,100913.09
2022-12-25T20:06:24.221Z,100910.66
2022-12-25T20:08:53.202Z,100902.59
2022-12-25T20:11:21.118Z,100900.78
2022-12-25T20:13:50.723Z,100903.41
2022-12-25T20:16:17.403Z,100916.09
2022-12-25T20:18:43.897Z,100909.63
2022-12-25T20:21:16.394Z,100931.53
2022-12-25T20:23:44.282Z,100927.94
2022-12-25T20:26:12.878Z,100926.94
2022-12-25T20:28:40.641Z,100924.59
2022-12-25T20:31:08.600Z,100924.78
2022-12-25T20:33:36.107Z,100921.59
2022-12-25T20:36:03.988Z,100927.06
2022-12-25T20:38:30.779Z,100926.09
2022-12-25T20:41:26.324Z,100937.34
2022-12-25T20:43:47.674Z,100935.91
2022-12-25T20:46:14.479Z,100926.81
2022-12-25T20:48:40.914Z,100919.19
2022-12-25T20:51:18.919Z,100922.78
2022-12-25T20:53:45.717Z,100923.78
2022-12-25T20:56:14.216Z,100915.34
2022-12-25T20:58:41.041Z,100919.94
2022-12-25T21:01:09.425Z,100921.47
2022-12-25T21:03:35.928Z,100924.09
2022-12-25T21:06:02.982Z,100933.72
2022-12-25T21:08:30.072Z,100934.88
2022-12-25T21:10:58.715Z,100929.66
2022-12-25T21:13:25.197Z,100931.66
2022-12-25T21:15:52.413Z,100926.88
2022-12-25T21:18:20.924Z,100919.59
2022-12-25T21:20:50.350Z,100926.69
2022-12-25T21:23:17.457Z,100923.81
2022-12-25T21:25:44.684Z,100930.72
2022-12-25T21:28:11.208Z,100938.38
2022-12-25T21:30:37.882Z,100932.34
2022-12-25T21:33:05.248Z,100942.41
2022-12-25T21:35:31.653Z,100944.84
2022-12-25T21:37:58.085Z,100943.22
2022-12-25T21:40:24.618Z,100945.63
2022-12-25T21:42:52.074Z,100926.31
2022-12-25T21:45:18.496Z,100926.94
2022-12-25T21:48:01.955Z,100935.16
2022-12-25T21:50:32.425Z,100949.25
2022-12-25T21:53:01.070Z,100958.88
2022-12-25T21:55:27.452Z,100970.03
2022-12-25T21:57:54.135Z,100978.25
2022-12-25T22:00:20.734Z,100974.63
2022-12-25T22:02:50.225Z,100975.63
2022-12-25T22:05:16.634Z,100969.22
2022-12-25T22:07:43.041Z,100977.22
2022-12-25T22:10:09.426Z,100968.25
2022-12-25T22:12:35.880Z,100966.06
2022-12-25T22:15:04.549Z,100965.72
2022-12-25T22:17:33.368Z,100966.97
2022-12-25T22:19:59.779Z,100970.19
2022-12-25T22:22:29.615Z,100963.59
2022-12-25T22:25:01.358Z,100957.81
2022-12-25T22:27:36.678Z,100965.13
2022-12-25T22:30:05.237Z,100955.66
2022-12-25T22:32:31.655Z,100965.63
2022-12-25T22:34:58.084Z,100968.41
2022-12-25T22:37:24.470Z,100975.06
2022-12-25T22:39:50.923Z,100982.69
2022-12-25T22:42:17.635Z,100991.03
2022-12-25T22:44:44.065Z,100996.69
2022-12-25T22:47:10.492Z,100987.22
2022-12-25T22:49:37.174Z,100987.13
2022-12-25T22:52:03.921Z,100999.63
2022-12-25T22:54:31.454Z,100984.38
2022-12-25T22:56:58.254Z,100970.97
2022-12-25T22:59:25.261Z,100982.84
2022-12-25T23:01:51.772Z,100982.47
2022-12-25T23:04:18.331Z,100981.28
2022-12-25T23:06:44.917Z,100969.41
2022-12-25T23:09:18.857Z,100968.84
2022-12-25T23:11:48.641Z,100959.84
2022-12-25T23:14:15.069Z,100949.19
2022-12-25T23:16:41.522Z,100947.75
2022-12-25T23:19:10.903Z,100945.94
2022-12-25T23:21:38.162Z,100955.84
2022-12-25T23:24:04.932Z,100954.41
2022-12-25T23:26:31.357Z,100957.44
2022-12-25T23:28:57.791Z,100942.16
2022-12-25T23:31:30.643Z,100939.59
2022-12-25T23:33:57.783Z,100933.72
2022-12-25T23:36:24.219Z,100939.41
2022-12-25T23:38:50.552Z,100920.69
2022-12-25T23:41:16.976Z,100927.75
2022-12-25T23:43:43.329Z,100930.19
2022-12-25T23:46:09.747Z,100948.47
2022-12-25T23:48:36.178Z,100957.47
2022-12-25T23:51:06.643Z,100954.88
2022-12-25T23:53:34.399Z,100944.81
2022-12-25T23:56:01.452Z,100954.50
2022-12-25T23:58:29.065Z,100953.09
